Time;durP1;ratioP1;P1;durP2;ratioP2;P2;SDS_P1;SDS_P2;PMS_P1;PMS_P2;Temp;Humidity;BMP_temperature;BMP_pressure;BME280_temperature;BME280_humidity;BME280_pressure;Samples;Min_cycle;Max_cycle;Signal;HPM_P1;HPM_P2
2022/01/05 00:01:27;;;;;;;0.93;0.80;;;;;;;4.03;100.00;96667.19;4092235;28;20047;-71
2022/01/05 00:03:28;;;;;;;0.80;0.80;;;;;;;4.05;100.00;96662.13;4089127;28;20051;-71
2022/01/05 00:05:28;;;;;;;1.15;0.80;;;;;;;4.04;100.00;96668.75;4089446;28;20078;-71
2022/01/05 00:07:28;;;;;;;0.80;0.80;;;;;;;4.01;100.00;96656.63;4087427;28;20133;-71
2022/01/05 00:09:29;;;;;;;0.80;0.80;;;;;;;4.02;100.00;96657.41;4092707;28;20047;-71
2022/01/05 00:11:29;;;;;;;0.70;0.70;;;;;;;4.11;100.00;96650.44;4089544;28;20708;-71
2022/01/05 00:13:30;;;;;;;0.80;0.80;;;;;;;4.16;98.91;96655.56;4088689;28;20058;-71
2022/01/05 00:15:30;;;;;;;0.80;0.80;;;;;;;4.15;99.77;96655.97;4089086;28;20051;-71
2022/01/05 00:17:30;;;;;;;1.30;0.90;;;;;;;4.17;99.96;96657.16;4087391;28;20111;-71
2022/01/05 00:19:34;;;;;;;0.88;0.70;;;;;;;4.11;99.61;96650.44;4088602;28;20137;-71
2022/01/05 00:21:34;;;;;;;0.80;0.80;;;;;;;4.13;100.00;96652.78;4091281;28;20062;-71
2022/01/05 00:23:34;;;;;;;0.65;0.65;;;;;;;4.14;100.00;96654.41;4088359;28;20480;-71
2022/01/05 00:25:35;;;;;;;0.65;0.65;;;;;;;4.12;99.65;96648.50;4089676;28;20514;-71
2022/01/05 00:27:35;;;;;;;0.80;0.80;;;;;;;4.08;98.80;96643.00;4089724;28;20671;-71
2022/01/05 00:29:36;;;;;;;0.80;0.80;;;;;;;4.20;100.00;96647.38;4089072;28;20435;-71
2022/01/05 00:31:36;;;;;;;0.60;0.60;;;;;;;4.18;98.30;96652.44;4089079;28;20043;-71
2022/01/05 00:33:37;;;;;;;0.70;0.70;;;;;;;4.18;98.76;96660.66;4088348;28;20483;-71
2022/01/05 00:35:37;;;;;;;0.60;0.60;;;;;;;4.26;96.86;96648.59;4088565;28;20203;-71
2022/01/05 00:37:38;;;;;;;0.60;0.60;;;;;;;4.23;96.96;96650.16;4087525;28;20950;-71
2022/01/05 00:39:38;;;;;;;0.70;0.70;;;;;;;4.23;97.13;96647.41;4089321;28;20580;-71
2022/01/05 00:41:38;;;;;;;0.70;0.70;;;;;;;4.20;98.08;96650.91;4087877;28;20134;-71
2022/01/05 00:43:40;;;;;;;0.73;0.73;;;;;;;4.19;97.57;96645.81;4088009;28;20093;-72
2022/01/05 00:45:41;;;;;;;0.70;0.70;;;;;;;4.17;98.17;96634.47;4092589;28;20297;-71
2022/01/05 00:47:41;;;;;;;0.98;0.80;;;;;;;4.16;99.01;96650.09;4086305;28;20171;-71
2022/01/05 00:49:42;;;;;;;0.93;0.70;;;;;;;4.12;97.60;96640.28;4092047;28;20051;-71
2022/01/05 00:51:42;;;;;;;0.82;0.80;;;;;;;4.12;97.69;96643.81;4093085;28;20093;-71
2022/01/05 00:53:43;;;;;;;0.70;0.70;;;;;;;4.13;97.51;96644.59;4092167;28;20472;-71
2022/01/05 00:55:44;;;;;;;0.70;0.70;;;;;;;4.10;96.93;96637.16;4087534;28;20054;-71
2022/01/05 00:57:45;;;;;;;0.60;0.60;;;;;;;4.11;96.70;96636.75;4087622;28;20081;-71
2022/01/05 00:59:46;;;;;;;0.70;0.70;;;;;;;4.10;96.92;96646.13;4088487;28;20042;-71
2022/01/05 01:01:46;;;;;;;0.70;0.70;;;;;;;4.06;97.27;96645.34;4087292;28;20047;-71
2022/01/05 01:03:46;;;;;;;0.60;0.60;;;;;;;4.08;97.10;96655.91;4088908;28;20083;-71
2022/01/05 01:05:47;;;;;;;0.52;0.52;;;;;;;4.06;97.93;96644.56;4088364;28;20039;-71
2022/01/05 01:07:47;;;;;;;1.38;0.68;;;;;;;4.03;97.91;96646.09;4086927;28;20062;-71
2022/01/05 01:09:48;;;;;;;0.60;0.60;;;;;;;4.05;97.23;96635.53;4088493;28;20035;-71
2022/01/05 01:11:48;;;;;;;0.60;0.60;;;;;;;4.00;96.91;96632.38;4090364;28;20040;-71
2022/01/05 01:13:48;;;;;;;0.60;0.60;;;;;;;4.07;96.80;96640.66;4088270;28;20040;-72
2022/01/05 01:15:51;;;;;;;2.70;0.80;;;;;;;4.05;96.07;96643.75;4087491;28;20039;-74
2022/01/05 01:17:51;;;;;;;0.50;0.50;;;;;;;4.04;96.82;96641.41;4087428;28;20047;-71
2022/01/05 01:19:52;;;;;;;0.60;0.60;;;;;;;4.03;95.52;96637.09;4087816;28;20122;-71
2022/01/05 01:21:52;;;;;;;0.60;0.60;;;;;;;4.00;96.48;96629.66;4088175;28;20047;-71
2022/01/05 01:23:55;;;;;;;0.60;0.60;;;;;;;3.99;95.95;96617.13;4087822;28;20066;-71
2022/01/05 01:25:55;;;;;;;0.60;0.60;;;;;;;3.99;96.16;96614.41;4090632;28;20577;-71
2022/01/05 01:27:56;;;;;;;0.70;0.70;;;;;;;3.96;96.53;96610.44;4099443;28;20271;-71
2022/01/05 01:29:56;;;;;;;0.60;0.57;;;;;;;3.93;96.80;96598.31;4087653;28;20211;-71
2022/01/05 01:31:57;;;;;;;1.67;0.60;;;;;;;3.92;96.81;96598.72;4093581;28;20043;-71
2022/01/05 01:33:57;;;;;;;0.60;0.60;;;;;;;3.91;97.00;96595.19;4087323;28;20338;-73
2022/01/05 01:35:57;;;;;;;1.75;0.60;;;;;;;3.90;97.25;96601.03;4092851;28;20047;-71
2022/01/05 01:37:58;;;;;;;1.25;0.70;;;;;;;3.88;97.99;96600.63;4087347;28;20062;-73
2022/01/05 01:39:58;;;;;;;0.60;0.60;;;;;;;3.90;98.22;96620.19;4087181;28;20057;-71
2022/01/05 01:41:59;;;;;;;0.60;0.60;;;;;;;3.89;98.38;96615.91;4088288;28;20055;-71
2022/01/05 01:43:59;;;;;;;1.48;0.60;;;;;;;3.88;99.08;96617.81;4086740;28;20637;-71
2022/01/05 01:46:00;;;;;;;0.60;0.60;;;;;;;3.90;97.51;96615.50;4087620;28;20047;-71
2022/01/05 01:48:01;;;;;;;0.70;0.70;;;;;;;3.93;98.58;96609.28;4086118;28;20507;-71
2022/01/05 01:50:02;;;;;;;1.00;0.60;;;;;;;3.95;97.19;96622.56;4088424;28;20042;-71
2022/01/05 01:52:03;;;;;;;0.68;0.68;;;;;;;3.89;97.65;96616.69;4087512;28;20208;-71
2022/01/05 01:54:06;;;;;;;0.70;0.60;;;;;;;3.94;98.60;96626.47;4086691;28;20035;-71
2022/01/05 01:56:08;;;;;;;0.60;0.60;;;;;;;3.94;97.93;96612.78;4087265;28;20486;-71
2022/01/05 01:58:08;;;;;;;0.60;0.60;;;;;;;3.97;96.75;96605.75;4090753;28;20043;-71
2022/01/05 02:00:10;;;;;;;0.70;0.70;;;;;;;4.05;96.91;96599.16;4092754;28;20398;-71
2022/01/05 02:02:10;;;;;;;0.60;0.60;;;;;;;4.07;95.25;96585.91;4088731;28;20537;-74
2022/01/05 02:04:11;;;;;;;0.65;0.65;;;;;;;4.06;95.89;96587.09;4090565;28;20035;-71
2022/01/05 02:06:11;;;;;;;0.60;0.60;;;;;;;4.00;96.29;96583.91;4089657;28;20031;-71
2022/01/05 02:08:11;;;;;;;0.50;0.50;;;;;;;3.99;97.38;96600.72;4088496;28;20032;-71
2022/01/05 02:10:12;;;;;;;0.70;0.70;;;;;;;3.98;97.37;96599.16;4090769;28;20063;-71
2022/01/05 02:12:12;;;;;;;1.70;0.70;;;;;;;3.95;97.57;96600.69;4089865;28;20449;-71
2022/01/05 02:14:13;;;;;;;0.60;0.60;;;;;;;3.93;98.43;96614.75;4093136;28;20122;-71
2022/01/05 02:16:19;;;;;;;0.60;0.60;;;;;;;3.90;98.01;96610.03;4089974;28;20502;-71
2022/01/05 02:20:24;;;;;;;0.60;0.60;;;;;;;4.04;97.59;96623.03;4089628;28;20043;-71
2022/01/05 02:22:24;;;;;;;0.73;0.65;;;;;;;4.12;98.92;96638.31;4089730;28;20047;-72
2022/01/05 02:24:25;;;;;;;0.80;0.80;;;;;;;4.02;100.00;96644.50;4090046;28;20039;-73
2022/01/05 02:26:26;;;;;;;0.88;0.88;;;;;;;3.84;100.00;96649.84;4089691;28;20454;-74
2022/01/05 02:28:26;;;;;;;0.98;0.90;;;;;;;3.73;100.00;96648.19;4094973;28;20043;-71
2022/01/05 02:30:30;;;;;;;0.60;0.60;;;;;;;3.75;100.00;96643.13;4089117;28;20054;-74
2022/01/05 02:32:30;;;;;;;0.70;0.70;;;;;;;3.61;100.00;96641.81;4092105;28;20129;-73
2022/01/05 02:34:30;;;;;;;0.60;0.60;;;;;;;3.43;100.00;96632.69;4089963;28;20047;-73
2022/01/05 02:36:31;;;;;;;0.60;0.60;;;;;;;3.38;100.00;96644.72;4094137;28;20047;-73
2022/01/05 02:38:32;;;;;;;0.60;0.60;;;;;;;3.29;100.00;96652.44;4090392;28;20466;-73
2022/01/05 02:40:32;;;;;;;0.70;0.70;;;;;;;3.38;100.00;96660.34;4089166;28;20521;-73
2022/01/05 02:42:33;;;;;;;0.82;0.60;;;;;;;3.36;100.00;96655.25;4090082;28;20082;-73
2022/01/05 02:44:33;;;;;;;0.80;0.80;;;;;;;3.28;100.00;96658.28;4090097;28;20219;-73
2022/01/05 02:46:34;;;;;;;0.70;0.70;;;;;;;3.28;100.00;96658.28;4088588;28;20550;-73
2022/01/05 02:48:35;;;;;;;0.70;0.70;;;;;;;3.24;100.00;96662.94;4089356;28;20333;-73
2022/01/05 02:50:35;;;;;;;0.68;0.68;;;;;;;3.24;100.00;96674.66;4090079;28;20039;-73
2022/01/05 02:52:36;;;;;;;4.93;3.65;;;;;;;3.22;100.00;96678.91;4090325;28;20039;-73
2022/01/05 02:54:36;;;;;;;1.02;0.93;;;;;;;3.18;100.00;96683.56;4089325;28;20415;-73
2022/01/05 02:56:37;;;;;;;0.80;0.80;;;;;;;3.19;100.00;96679.66;4088805;28;20035;-73
2022/01/05 02:58:38;;;;;;;1.38;0.90;;;;;;;3.18;100.00;96689.03;4089624;28;20649;-73
2022/01/05 03:00:39;;;;;;;0.70;0.70;;;;;;;3.03;100.00;96682.59;4088915;28;20035;-73
2022/01/05 03:02:39;;;;;;;0.73;0.70;;;;;;;2.95;100.00;96681.72;4089320;28;20040;-73
2022/01/05 03:04:40;;;;;;;0.50;0.50;;;;;;;2.96;100.00;96690.72;4089309;28;20048;-73
2022/01/05 03:06:40;;;;;;;0.50;0.50;;;;;;;2.85;100.00;96704.25;4088571;28;20102;-73
2022/01/05 03:08:40;;;;;;;0.50;0.50;;;;;;;2.61;100.00;96672.72;4091323;28;20372;-73
2022/01/05 03:10:41;;;;;;;0.52;0.52;;;;;;;2.54;100.00;96697.19;4097754;28;20047;-73
2022/01/05 03:12:43;;;;;;;0.50;0.50;;;;;;;2.45;100.00;96707.56;4089572;28;20517;-73
2022/01/05 03:14:44;;;;;;;0.82;0.75;;;;;;;2.43;100.00;96709.91;4088355;28;20043;-73
2022/01/05 03:16:44;;;;;;;0.60;0.60;;;;;;;2.36;100.00;96698.88;4089629;28;20441;-73
2022/01/05 03:18:44;;;;;;;1.80;0.80;;;;;;;2.08;100.00;96678.19;4092585;28;20131;-73
2022/01/05 03:20:48;;;;;;;0.80;0.70;;;;;;;1.88;100.00;96699.28;4088738;28;20052;-73
2022/01/05 03:22:49;;;;;;;2.30;1.35;;;;;;;1.42;100.00;96706.66;4089326;28;20046;-73
2022/01/05 03:24:50;;;;;;;1.48;1.20;;;;;;;1.17;100.00;96694.50;4090157;28;20059;-72
2022/01/05 03:26:50;;;;;;;1.90;1.30;;;;;;;0.97;100.00;96737.28;4091328;28;20046;-73
2022/01/05 03:28:50;;;;;;;2.13;0.93;;;;;;;0.61;100.00;96746.63;4091381;28;20709;-73
2022/01/05 03:30:51;;;;;;;1.50;0.90;;;;;;;0.53;100.00;96732.84;4089482;28;20695;-72
2022/01/05 03:35:11;;;;;;;3.65;1.10;;;;;;;0.08;100.00;96765.97;4092150;28;20145;-73
2022/01/05 03:37:12;;;;;;;3.97;1.00;;;;;;;-0.01;100.00;96768.88;4092577;28;20054;-73
2022/01/05 03:39:13;;;;;;;2.60;1.00;;;;;;;-0.07;100.00;96785.81;4088337;28;20164;-73
2022/01/05 03:41:14;;;;;;;2.08;1.08;;;;;;;-0.10;100.00;96781.84;4088306;28;20468;-73
2022/01/05 03:43:15;;;;;;;2.75;1.20;;;;;;;-0.13;100.00;96773.63;4089239;28;20100;-72
2022/01/05 03:45:15;;;;;;;1.35;0.85;;;;;;;-0.22;100.00;96787.38;4088800;28;20491;-72
2022/01/05 03:47:15;;;;;;;6.95;1.52;;;;;;;-0.31;100.00;96784.03;4088638;28;20487;-73
2022/01/05 03:49:16;;;;;;;1.13;1.00;;;;;;;-0.23;100.00;96782.28;4091840;28;20055;-73
2022/01/05 03:51:16;;;;;;;1.00;0.90;;;;;;;-0.33;100.00;96781.66;4089046;28;20493;-73
2022/01/05 03:53:17;;;;;;;2.15;1.23;;;;;;;-0.36;100.00;96789.72;4088996;28;20298;-73
2022/01/05 03:55:17;;;;;;;3.85;1.10;;;;;;;-0.39;100.00;96790.41;4088518;28;20507;-73
2022/01/05 03:57:18;;;;;;;6.13;1.50;;;;;;;-0.37;100.00;96799.00;4088300;28;20048;-73
2022/01/05 03:59:18;;;;;;;2.15;1.10;;;;;;;-0.41;100.00;96809.00;4089162;28;20043;-73
2022/01/05 04:01:19;;;;;;;2.28;1.10;;;;;;;-0.40;100.00;96813.28;4088445;28;20066;-73
2022/01/05 04:03:19;;;;;;;4.03;1.25;;;;;;;-0.36;100.00;96825.03;4087747;28;20487;-73
2022/01/05 04:05:19;;;;;;;4.68;1.27;;;;;;;-0.28;100.00;96824.09;4089349;28;20051;-73
2022/01/05 04:07:20;;;;;;;2.78;1.35;;;;;;;-0.29;100.00;96836.91;4094630;28;20319;-73
2022/01/05 04:09:20;;;;;;;5.70;2.28;;;;;;;-0.31;100.00;96824.78;4087702;28;20325;-73
2022/01/05 04:11:21;;;;;;;2.60;1.50;;;;;;;-0.25;100.00;96844.34;4090019;28;20051;-72
2022/01/05 04:13:21;;;;;;;1.90;1.27;;;;;;;-0.19;100.00;96854.63;4088538;28;20473;-73
2022/01/05 04:15:22;;;;;;;3.30;1.35;;;;;;;-0.13;100.00;96850.53;4089636;28;20218;-73
2022/01/05 04:17:22;;;;;;;3.35;1.85;;;;;;;-0.11;100.00;96836.56;4088548;28;20050;-73
2022/01/05 04:19:23;;;;;;;1.92;1.50;;;;;;;-0.08;100.00;96835.91;4096378;28;20051;-73
2022/01/05 04:21:24;;;;;;;2.30;1.60;;;;;;;-0.06;100.00;96839.06;4090248;28;20597;-73
2022/01/05 04:23:24;;;;;;;1.98;1.60;;;;;;;-0.13;100.00;96834.22;4090548;28;20054;-73
2022/01/05 04:25:24;;;;;;;2.67;1.73;;;;;;;-0.12;100.00;96845.88;4090660;28;20219;-73
2022/01/05 04:27:25;;;;;;;2.13;1.42;;;;;;;-0.16;100.00;96851.22;4087217;28;20047;-73
2022/01/05 04:29:25;;;;;;;4.32;1.50;;;;;;;-0.22;100.00;96838.22;4088312;28;20047;-73
2022/01/05 04:31:25;;;;;;;2.55;1.50;;;;;;;-0.24;100.00;96844.03;4088445;28;20614;-72
2022/01/05 04:33:26;;;;;;;1.75;1.10;;;;;;;-0.36;100.00;96855.72;4088280;28;20047;-73
2022/01/05 04:35:26;;;;;;;4.32;1.45;;;;;;;-0.39;100.00;96869.22;4088097;28;20139;-73
2022/01/05 04:37:27;;;;;;;3.72;1.10;;;;;;;-0.42;100.00;96861.75;4087843;28;20047;-72
2022/01/05 04:39:27;;;;;;;4.20;1.30;;;;;;;-0.34;100.00;96863.53;4088111;28;20051;-72
2022/01/05 04:41:27;;;;;;;1.42;1.00;;;;;;;-0.38;100.00;96868.88;4088275;28;20035;-72
2022/01/05 04:43:28;;;;;;;2.33;1.10;;;;;;;-0.32;100.00;96864.78;4088373;28;20277;-72
2022/01/05 04:45:28;;;;;;;1.98;0.90;;;;;;;-0.35;100.00;96865.44;4088955;28;20101;-72
2022/01/05 04:47:28;;;;;;;1.13;1.00;;;;;;;-0.34;100.00;96874.38;4089490;28;20051;-73
2022/01/05 04:49:29;;;;;;;0.90;0.82;;;;;;;-0.30;100.00;96886.16;4088382;28;20044;-72
2022/01/05 04:51:29;;;;;;;3.50;0.98;;;;;;;-0.26;100.00;96889.75;4089289;28;20065;-72
2022/01/05 04:53:30;;;;;;;2.47;0.90;;;;;;;-0.29;100.00;96887.75;4087555;28;20054;-72
2022/01/05 04:55:30;;;;;;;2.72;0.90;;;;;;;-0.24;100.00;96889.44;4088300;28;20113;-72
2022/01/05 04:57:31;;;;;;;1.25;0.85;;;;;;;-0.26;100.00;96881.59;4087057;28;20491;-72
2022/01/05 04:59:32;;;;;;;1.00;0.80;;;;;;;-0.23;100.00;96899.16;4110479;28;20051;-72
2022/01/05 05:01:32;;;;;;;0.70;0.70;;;;;;;-0.33;100.00;96895.81;4090968;28;20051;-73
2022/01/05 05:03:32;;;;;;;0.95;0.70;;;;;;;-0.32;100.00;96905.53;4090121;28;20058;-72
2022/01/05 05:05:34;;;;;;;2.13;1.02;;;;;;;-0.31;100.00;96909.84;4088451;28;20042;-72
2022/01/05 05:07:37;;;;;;;1.60;1.00;;;;;;;-0.28;100.00;96905.63;4086203;28;20419;-73
2022/01/05 05:09:37;;;;;;;1.42;1.10;;;;;;;-0.32;100.00;96902.03;4089198;28;20919;-73
2022/01/05 05:11:38;;;;;;;1.95;1.13;;;;;;;-0.32;100.00;96921.06;4088512;28;20631;-73
2022/01/05 05:13:38;;;;;;;2.17;0.93;;;;;;;-0.38;100.00;96915.06;4088185;28;20546;-73
2022/01/05 05:15:40;;;;;;;2.13;1.67;;;;;;;-0.38;100.00;96911.56;4086391;28;20055;-72
2022/01/05 05:17:40;;;;;;;4.10;2.55;;;;;;;-0.31;100.00;96925.34;4087540;28;20613;-72
2022/01/05 05:19:41;;;;;;;3.17;2.10;;;;;;;-0.28;100.00;96930.88;4087921;28;20143;-73
2022/01/05 05:21:41;;;;;;;2.50;1.88;;;;;;;-0.17;100.00;96925.75;4089634;28;20043;-73
2022/01/05 05:23:42;;;;;;;1.50;1.10;;;;;;;-0.14;100.00;96938.66;4088612;28;20086;-73
2022/01/05 05:25:42;;;;;;;2.05;1.42;;;;;;;-0.16;100.00;96959.19;4088124;28;20463;-72
2022/01/05 05:27:43;;;;;;;3.83;1.25;;;;;;;-0.10;100.00;96952.34;4086551;28;20043;-72
2022/01/05 05:29:43;;;;;;;1.15;0.98;;;;;;;-0.25;100.00;96959.28;4087185;28;20376;-72
2022/01/05 05:31:44;;;;;;;7.90;1.60;;;;;;;-0.32;100.00;96969.97;4094017;28;20047;-72
2022/01/05 05:33:44;;;;;;;3.78;1.00;;;;;;;-0.42;100.00;96965.00;4093751;28;20040;-72
2022/01/05 05:35:44;;;;;;;2.67;1.10;;;;;;;-0.42;100.00;96965.78;4089135;28;20052;-73
2022/01/05 05:37:45;;;;;;;2.55;1.42;;;;;;;-0.47;100.00;96947.03;4115213;28;20063;-73
2022/01/05 05:39:45;;;;;;;3.90;1.10;;;;;;;-0.50;100.00;96941.47;4094836;28;20043;-72
2022/01/05 05:41:45;;;;;;;7.13;1.80;;;;;;;-0.46;100.00;96951.31;4093217;28;20227;-73
2022/01/05 05:43:48;;;;;;;3.03;1.60;;;;;;;-0.47;100.00;96944.31;4090572;28;20662;-72
2022/01/05 05:45:49;;;;;;;5.05;1.83;;;;;;;-0.48;100.00;96948.16;4090406;28;20365;-72
2022/01/05 05:47:49;;;;;;;3.50;1.35;;;;;;;-0.46;100.00;96950.53;4088718;28;20042;-72
2022/01/05 05:49:50;;;;;;;6.75;1.85;;;;;;;-0.42;100.00;96956.84;4089041;28;20206;-73
2022/01/05 05:51:50;;;;;;;7.15;2.85;;;;;;;-0.40;100.00;96957.31;4090709;28;20525;-73
2022/01/05 05:53:51;;;;;;;5.47;2.30;;;;;;;-0.35;100.00;96967.94;4088646;28;20051;-72
2022/01/05 05:55:51;;;;;;;5.35;2.63;;;;;;;-0.35;100.00;96976.88;4090514;28;20048;-72
2022/01/05 05:57:52;;;;;;;2.35;1.92;;;;;;;-0.31;100.00;96966.13;4088113;28;20577;-73
2022/01/05 05:59:52;;;;;;;7.28;1.80;;;;;;;-0.26;100.00;96965.06;4087375;28;20244;-72
2022/01/05 06:01:53;;;;;;;3.35;1.90;;;;;;;-0.30;100.00;96963.06;4089073;28;20039;-72
2022/01/05 06:03:53;;;;;;;6.50;1.95;;;;;;;-0.27;100.00;96958.84;4087576;28;20542;-72
2022/01/05 06:05:54;;;;;;;4.32;1.65;;;;;;;-0.25;100.00;96972.09;4088598;28;20047;-72
2022/01/05 06:07:54;;;;;;;3.58;1.88;;;;;;;-0.20;100.00;96977.28;4091773;28;20055;-72
2022/01/05 06:09:55;;;;;;;6.90;2.22;;;;;;;-0.17;100.00;96982.03;4094238;28;20483;-72
2022/01/05 06:11:55;;;;;;;4.95;1.98;;;;;;;-0.17;100.00;96993.69;4088316;28;20058;-72
2022/01/05 06:13:55;;;;;;;3.42;2.10;;;;;;;-0.16;100.00;96989.88;4086937;28;20035;-72
2022/01/05 06:15:56;;;;;;;5.57;2.63;;;;;;;-0.15;100.00;96983.28;4087682;28;20043;-72
2022/01/05 06:17:56;;;;;;;6.15;2.30;;;;;;;-0.14;100.00;96993.03;4091625;28;20165;-72
2022/01/05 06:19:56;;;;;;;6.32;2.55;;;;;;;-0.13;100.00;96991.09;4082676;28;20570;-72
2022/01/05 06:21:58;;;;;;;3.67;2.20;;;;;;;-0.09;100.00;97002.84;4086396;28;20040;-72
2022/01/05 06:23:58;;;;;;;3.35;2.35;;;;;;;-0.06;100.00;97002.19;4087987;28;20035;-72
2022/01/05 06:25:59;;;;;;;5.63;3.72;;;;;;;-0.05;100.00;96999.13;4087970;28;20047;-72
2022/01/05 06:27:59;;;;;;;5.90;2.15;;;;;;;-0.01;100.00;97002.72;4089188;28;20053;-72
2022/01/05 06:30:04;;;;;;;8.18;2.55;;;;;;;0.01;100.00;97005.13;4091140;28;20050;-72
2022/01/05 06:32:05;;;;;;;4.05;2.20;;;;;;;0.01;100.00;97009.75;4159033;28;20500;-72
2022/01/05 06:34:06;;;;;;;5.18;2.17;;;;;;;-0.06;100.00;97005.69;4090276;28;20035;-72
2022/01/05 06:36:07;;;;;;;13.73;4.35;;;;;;;-0.04;100.00;97008.84;4090316;28;20339;-72
2022/01/05 06:38:07;;;;;;;25.73;7.40;;;;;;;-0.02;100.00;97012.00;4091197;28;20092;-72
2022/01/05 06:40:08;;;;;;;12.98;5.60;;;;;;;-0.01;100.00;97010.88;4088814;28;20033;-72
2022/01/05 06:42:09;;;;;;;8.07;3.95;;;;;;;0.03;100.00;97013.72;4090103;28;20364;-73
2022/01/05 06:44:09;;;;;;;7.05;2.80;;;;;;;-0.01;100.00;97013.59;4092251;28;20069;-73
2022/01/05 06:46:10;;;;;;;3.13;1.95;;;;;;;-0.01;100.00;97024.47;4090932;28;20043;-72
2022/01/05 06:48:10;;;;;;;3.03;1.50;;;;;;;-0.01;100.00;97019.03;4092304;28;20475;-72
2022/01/05 06:50:11;;;;;;;3.05;1.55;;;;;;;0.02;100.00;97011.34;4095841;28;20459;-72
2022/01/05 06:52:14;;;;;;;4.70;1.95;;;;;;;-0.01;100.00;97007.38;4091996;28;20038;-72
2022/01/05 06:54:15;;;;;;;5.60;1.60;;;;;;;-0.02;100.00;97017.44;4093543;28;20092;-72
2022/01/05 06:56:15;;;;;;;5.57;2.00;;;;;;;-0.08;100.00;97028.94;4095759;28;20421;-72
2022/01/05 06:58:16;;;;;;;5.25;2.65;;;;;;;-0.05;100.00;97011.91;4092268;28;20042;-72
2022/01/05 07:00:17;;;;;;;8.82;3.60;;;;;;;0.03;100.00;97034.66;4093481;28;20092;-72
2022/01/05 07:02:17;;;;;;;9.75;4.00;;;;;;;0.14;100.00;97027.59;4091616;28;20318;-72
2022/01/05 07:04:18;;;;;;;6.90;2.55;;;;;;;0.11;100.00;97022.88;4093579;28;20146;-72
2022/01/05 07:06:18;;;;;;;9.43;3.25;;;;;;;0.09;100.00;97027.88;4091166;28;20835;-72
2022/01/05 07:08:19;;;;;;;5.10;2.83;;;;;;;0.04;100.00;97037.03;4089729;28;20596;-72
2022/01/05 07:10:20;;;;;;;3.90;2.85;;;;;;;0.02;100.00;97043.97;4109633;28;20046;-72
2022/01/05 07:12:20;;;;;;;10.85;3.30;;;;;;;-0.04;100.00;97046.13;4118285;28;20518;-72
2022/01/05 07:14:20;;;;;;;8.38;3.88;;;;;;;-0.03;100.00;97048.50;4089930;28;20090;-72
2022/01/05 07:16:21;;;;;;;4.13;2.53;;;;;;;-0.04;100.00;97049.63;4089368;28;20777;-72
2022/01/05 07:18:21;;;;;;;10.10;3.65;;;;;;;-0.08;100.00;97048.75;4088731;28;20149;-72
2022/01/05 07:20:22;;;;;;;9.20;3.13;;;;;;;-0.03;100.00;97047.72;4088101;28;20442;-72
2022/01/05 07:22:23;;;;;;;5.60;3.05;;;;;;;-0.10;100.00;97048.28;4092306;28;20100;-72
2022/01/05 07:24:23;;;;;;;4.22;2.63;;;;;;;-0.09;100.00;97052.59;4089338;28;20040;-72
2022/01/05 07:26:24;;;;;;;6.43;3.60;;;;;;;-0.09;100.00;97059.94;4088725;28;20101;-72
2022/01/05 07:28:24;;;;;;;5.90;2.72;;;;;;;-0.05;100.00;97067.09;4090759;28;20120;-72
2022/01/05 07:30:25;;;;;;;6.63;2.53;;;;;;;-0.03;100.00;97064.81;4092872;28;20483;-72
2022/01/05 07:32:28;;;;;;;7.53;2.22;;;;;;;-0.06;100.00;97073.66;4089531;28;20054;-72
2022/01/05 07:34:28;;;;;;;;;;;;;;;-0.09;100.00;97085.22;4089161;28;20039;-72
2022/01/05 07:36:29;;;;;;;5.80;2.40;;;;;;;-0.09;100.00;97093.38;4090546;28;19926;-72
2022/01/05 07:38:30;;;;;;;5.97;2.13;;;;;;;-0.12;100.00;97101.41;4089588;28;20469;-72
2022/01/05 07:40:33;;;;;;;5.03;2.28;;;;;;;-0.09;100.00;97101.50;4089246;28;20250;-72
2022/01/05 07:42:35;;;;;;;3.90;2.17;;;;;;;-0.02;100.00;97109.91;4089354;28;20055;-72
2022/01/05 07:44:36;;;;;;;7.00;2.10;;;;;;;0.02;100.00;97109.22;4089468;28;20047;-72
2022/01/05 07:46:36;;;;;;;3.97;2.22;;;;;;;-0.07;100.00;97125.66;4088909;28;20114;-72
2022/01/05 07:48:37;;;;;;;6.75;2.58;;;;;;;-0.13;100.00;97121.59;4089591;28;20047;-72
2022/01/05 07:50:37;;;;;;;6.97;2.80;;;;;;;-0.21;100.00;97111.63;4089970;28;20055;-72
2022/01/05 07:52:38;;;;;;;8.40;2.17;;;;;;;-0.21;100.00;97128.72;4089533;28;20335;-72
2022/01/05 07:54:38;;;;;;;4.78;2.35;;;;;;;-0.24;100.00;97117.75;4090892;28;20530;-72
2022/01/05 07:56:39;;;;;;;6.68;2.35;;;;;;;-0.22;100.00;97121.72;4088171;28;20054;-72
2022/01/05 07:58:42;;;;;;;5.72;2.25;;;;;;;-0.21;100.00;97126.00;4089543;28;20082;-72
2022/01/05 08:00:42;;;;;;;9.13;5.00;;;;;;;-0.15;100.00;97130.09;4089300;28;20095;-72
2022/01/05 08:02:43;;;;;;;6.07;3.80;;;;;;;-0.10;100.00;97139.94;4088920;28;20425;-72
2022/01/05 08:04:48;;;;;;;8.50;3.00;;;;;;;-0.18;100.00;97128.03;4089185;28;20035;-72
2022/01/05 08:06:49;;;;;;;7.97;2.70;;;;;;;-0.20;100.00;97124.09;4088259;28;20334;-72
2022/01/05 08:08:50;;;;;;;9.05;2.88;;;;;;;-0.11;100.00;97132.91;4089915;28;20372;-72
2022/01/05 08:10:50;;;;;;;8.80;2.85;;;;;;;-0.12;100.00;97137.56;4093620;28;20303;-73
2022/01/05 08:12:50;;;;;;;6.55;3.30;;;;;;;-0.08;99.54;97143.91;4089326;28;20137;-72
2022/01/05 08:14:51;;;;;;;5.68;2.53;;;;;;;-0.06;98.55;97146.28;4090918;28;20047;-72
2022/01/05 08:16:51;;;;;;;4.53;2.70;;;;;;;-0.07;96.62;97134.63;4087820;28;20086;-72
2022/01/05 08:18:52;;;;;;;6.35;3.10;;;;;;;-0.05;95.91;97143.22;4089718;28;20091;-72
2022/01/05 08:20:52;;;;;;;5.07;2.55;;;;;;;-0.10;96.01;97146.16;4093012;28;20073;-72
2022/01/05 08:22:53;;;;;;;5.90;2.30;;;;;;;-0.09;94.87;97136.88;4089134;28;20093;-72
2022/01/05 08:24:53;;;;;;;5.60;3.22;;;;;;;-0.08;94.11;97149.34;4089015;28;20058;-72
2022/01/05 08:26:53;;;;;;;6.13;2.97;;;;;;;-0.13;91.39;97144.13;4087624;28;20151;-72
2022/01/05 08:28:56;;;;;;;6.47;3.45;;;;;;;-0.12;91.69;97153.88;4089004;28;20051;-72
2022/01/05 08:30:59;;;;;;;;;;;;;;;-0.14;92.35;97161.59;4089585;28;20641;-72
2022/01/05 08:33:01;;;;;;;6.30;2.65;;;;;;;-0.08;90.96;97157.50;4090617;28;20302;-72
2022/01/05 08:35:01;;;;;;;5.05;2.70;;;;;;;-0.11;92.30;97162.81;4091369;28;20062;-72
2022/01/05 08:37:05;;;;;;;6.47;2.70;;;;;;;-0.15;91.78;97168.16;4089239;28;20407;-72
2022/01/05 08:39:05;;;;;;;7.38;3.22;;;;;;;-0.12;90.23;97156.59;4089011;28;20063;-72
2022/01/05 08:41:05;;;;;;;5.50;2.25;;;;;;;-0.05;88.58;97173.13;4088533;28;20109;-72
2022/01/05 08:43:07;;;;;;;4.30;2.60;;;;;;;-0.07;89.67;97171.91;4088853;28;20630;-72
2022/01/05 08:45:09;;;;;;;3.72;2.08;;;;;;;-0.06;88.79;97185.13;4088704;28;20047;-72
2022/01/05 08:47:09;;;;;;;4.75;2.30;;;;;;;-0.08;87.66;97192.06;4087715;28;20058;-72
2022/01/05 08:49:11;;;;;;;6.57;2.55;;;;;;;-0.08;87.67;97202.94;4089946;28;20399;-72
2022/01/05 08:51:11;;;;;;;6.03;2.30;;;;;;;-0.06;87.08;97200.66;4089033;28;20051;-72
2022/01/05 08:53:11;;;;;;;4.00;1.98;;;;;;;0.01;86.01;97200.91;4088408;28;20043;-72
2022/01/05 08:55:14;;;;;;;3.95;2.65;;;;;;;0.06;87.63;97213.47;4088849;28;20071;-72
2022/01/05 08:57:16;;;;;;;7.50;3.28;;;;;;;0.04;86.36;97208.38;4087637;28;20768;-72
2022/01/05 08:59:16;;;;;;;5.80;2.78;;;;;;;0.03;87.55;97212.22;4088310;28;20116;-72
2022/01/05 09:01:17;;;;;;;11.60;3.20;;;;;;;0.05;88.09;97207.22;4088998;28;20047;-72
2022/01/05 09:03:17;;;;;;;3.92;2.58;;;;;;;0.03;86.54;97217.66;4090968;28;20050;-72
2022/01/05 09:05:18;;;;;;;4.88;2.88;;;;;;;0.08;88.02;97224.78;4089096;28;20446;-72
2022/01/05 09:07:19;;;;;;;7.38;3.40;;;;;;;0.07;87.89;97236.81;4087179;28;20096;-72
2022/01/05 09:09:19;;;;;;;7.93;3.13;;;;;;;0.07;86.72;97225.91;4091767;28;20070;-72
2022/01/05 09:11:20;;;;;;;7.38;2.70;;;;;;;0.15;85.88;97238.63;4089111;28;20475;-72
2022/01/05 09:13:20;;;;;;;6.30;3.13;;;;;;;0.16;85.68;97234.75;4090872;28;20047;-72
2022/01/05 09:15:21;;;;;;;6.50;3.20;;;;;;;0.15;87.43;97242.13;4088665;28;20105;-72
2022/01/05 09:17:21;;;;;;;6.63;2.78;;;;;;;0.14;86.68;97239.75;4088752;28;20060;-72
2022/01/05 09:19:22;;;;;;;4.95;2.75;;;;;;;0.17;86.47;97245.31;4088780;28;20093;-72
2022/01/05 09:21:23;;;;;;;8.07;3.35;;;;;;;0.21;87.31;97242.69;4087685;28;20055;-72
2022/01/05 09:23:24;;;;;;;6.37;3.03;;;;;;;0.24;86.42;97250.16;4088024;28;20054;-72
2022/01/05 09:25:24;;;;;;;5.40;2.63;;;;;;;0.21;87.16;97251.66;4096062;28;20043;-72
2022/01/05 09:27:25;;;;;;;6.60;2.70;;;;;;;0.28;86.39;97256.53;4086730;28;20619;-72
2022/01/05 09:29:25;;;;;;;7.45;3.50;;;;;;;0.30;85.39;97254.25;4087973;28;20047;-72
2022/01/05 09:31:25;;;;;;;6.88;3.80;;;;;;;0.33;86.73;97261.72;4088669;28;20467;-72